Time;durP1;ratioP1;P1;durP2;ratioP2;P2;SDS_P1;SDS_P2;PMS_P1;PMS_P2;Temp;Humidity;BMP_temperature;BMP_pressure;BME280_temperature;BME280_humidity;BME280_pressure;Samples;Min_cycle;Max_cycle;Signal;HPM_P1;HPM_P2
2022/11/08 00:02:25;;;;;;;;;4.00;4.00;;;;;;;;5085942;28;9117;-78
2022/11/08 00:04:53;;;;;;;;;5.00;3.00;;;;;;;;5104541;27;9194;-79
2022/11/08 00:15:37;;;;;;;;;3.00;3.00;;;;;;;;5131697;27;9424;-79
2022/11/08 00:18:05;;;;;;;;;4.00;4.00;;;;;;;;5102661;27;9188;-78
2022/11/08 00:20:33;;;;;;;;;4.00;4.00;;;;;;;;5139424;27;9208;-79
2022/11/08 00:23:03;;;;;;;;;4.00;4.00;;;;;;;;5117014;27;9454;-79
2022/11/08 00:25:31;;;;;;;;;4.67;4.67;;;;;;;;5136932;27;9333;-78
2022/11/08 00:27:59;;;;;;;;;3.67;3.67;;;;;;;;5134402;27;9387;-78
2022/11/08 00:30:26;;;;;;;;;3.00;3.00;;;;;;;;5117213;27;9284;-78
2022/11/08 00:32:54;;;;;;;;;4.00;4.00;;;;;;;;5134569;27;9243;-78
2022/11/08 00:35:21;;;;;;;;;5.67;4.33;;;;;;;;5130550;27;9297;-78
2022/11/08 00:37:49;;;;;;;;;3.00;3.00;;;;;;;;5107555;27;9443;-78
2022/11/08 00:40:19;;;;;;;;;5.00;3.67;;;;;;;;5106635;27;9379;-79
2022/11/08 00:42:46;;;;;;;;;3.00;3.00;;;;;;;;5128507;27;9370;-79
2022/11/08 00:45:13;;;;;;;;;3.00;3.00;;;;;;;;5131305;27;9241;-78
2022/11/08 00:47:41;;;;;;;;;4.00;4.00;;;;;;;;5136210;27;10108;-79
2022/11/08 00:50:09;;;;;;;;;3.67;3.67;;;;;;;;5135179;27;9389;-78
2022/11/08 00:52:37;;;;;;;;;4.33;4.00;;;;;;;;5113917;27;10050;-78
2022/11/08 00:55:05;;;;;;;;;5.00;5.00;;;;;;;;5130025;27;9312;-79
2022/11/08 00:57:34;;;;;;;;;3.00;3.00;;;;;;;;5112144;27;10172;-79
2022/11/08 01:00:02;;;;;;;;;2.00;2.00;;;;;;;;5137328;27;9253;-78
2022/11/08 01:02:29;;;;;;;;;3.00;3.00;;;;;;;;5132641;27;9393;-77
2022/11/08 01:04:57;;;;;;;;;10.25;4.00;;;;;;;;5112994;27;9377;-79
2022/11/08 01:07:25;;;;;;;;;3.00;3.00;;;;;;;;5133459;27;9393;-78
2022/11/08 01:09:53;;;;;;;;;2.33;2.00;;;;;;;;5112089;27;9372;-79
2022/11/08 01:12:20;;;;;;;;;4.33;3.00;;;;;;;;5111922;27;9231;-78
2022/11/08 01:14:49;;;;;;;;;3.33;3.33;;;;;;;;5129712;27;10023;-78
2022/11/08 01:17:17;;;;;;;;;4.33;3.00;;;;;;;;5132765;27;9265;-78
2022/11/08 01:19:44;;;;;;;;;4.00;4.00;;;;;;;;5132163;27;10056;-77
2022/11/08 01:22:12;;;;;;;;;3.50;3.00;;;;;;;;5111563;27;10295;-77
2022/11/08 01:24:40;;;;;;;;;3.67;3.67;;;;;;;;5132869;27;10150;-78
2022/11/08 01:27:07;;;;;;;;;3.00;3.00;;;;;;;;5110831;27;10147;-79
2022/11/08 01:29:35;;;;;;;;;3.00;3.00;;;;;;;;5127033;27;9464;-79
2022/11/08 01:32:04;;;;;;;;;3.00;3.00;;;;;;;;5128402;27;9275;-79
2022/11/08 01:34:32;;;;;;;;;3.00;3.00;;;;;;;;5135162;27;9316;-78
2022/11/08 01:36:59;;;;;;;;;3.67;2.00;;;;;;;;5137435;27;9499;-79
2022/11/08 01:39:31;;;;;;;;;5.33;5.00;;;;;;;;5134494;27;9294;-77
2022/11/08 01:41:59;;;;;;;;;4.00;4.00;;;;;;;;5108543;27;9372;-78
2022/11/08 01:44:27;;;;;;;;;3.67;3.33;;;;;;;;5117283;27;9439;-78
2022/11/08 01:46:54;;;;;;;;;3.00;3.00;;;;;;;;5135876;27;9409;-78
2022/11/08 01:49:43;;;;;;;;;3.75;2.50;;;;;;;;5136873;27;9346;-79
2022/11/08 01:52:30;;;;;;;;;4.75;3.00;;;;;;;;5135166;27;9364;-79
2022/11/08 01:55:09;;;;;;;;;5.67;4.00;;;;;;;;5130904;27;9353;-78
2022/11/08 01:57:41;;;;;;;;;4.00;3.00;;;;;;;;5114639;27;9395;-78
2022/11/08 02:00:12;;;;;;;;;3.25;3.25;;;;;;;;5100639;27;9482;-78
2022/11/08 02:02:42;;;;;;;;;3.75;2.25;;;;;;;;5134501;27;9350;-78
2022/11/08 02:05:24;;;;;;;;;6.00;4.00;;;;;;;;5133544;27;9367;-78
2022/11/08 02:07:56;;;;;;;;;3.50;3.00;;;;;;;;5132380;27;9388;-78
2022/11/08 02:10:27;;;;;;;;;3.00;3.00;;;;;;;;5110262;27;9519;-78
2022/11/08 02:12:55;;;;;;;;;3.00;3.00;;;;;;;;5131051;27;9441;-79
2022/11/08 02:15:24;;;;;;;;;3.00;1.00;;;;;;;;5136359;27;9317;-78
2022/11/08 02:17:52;;;;;;;;;3.00;3.00;;;;;;;;5110698;27;9270;-78
2022/11/08 02:20:22;;;;;;;;;2.33;2.33;;;;;;;;5128055;27;9460;-78
2022/11/08 02:22:55;;;;;;;;;3.00;3.00;;;;;;;;5134155;27;9488;-78
2022/11/08 02:25:24;;;;;;;;;5.00;5.00;;;;;;;;5129976;27;9504;-78
2022/11/08 02:27:51;;;;;;;;;4.33;2.00;;;;;;;;5128148;27;9981;-78
2022/11/08 02:30:20;;;;;;;;;3.00;3.00;;;;;;;;5108383;27;9385;-78
2022/11/08 02:32:48;;;;;;;;;3.00;3.00;;;;;;;;5108332;27;9346;-78
2022/11/08 02:35:18;;;;;;;;;2.00;2.00;;;;;;;;5127853;27;9404;-79
2022/11/08 02:37:46;;;;;;;;;4.75;3.00;;;;;;;;5127535;27;9368;-79
2022/11/08 02:40:14;;;;;;;;;4.00;1.67;;;;;;;;5109402;27;9473;-78
2022/11/08 02:42:43;;;;;;;;;3.00;3.00;;;;;;;;5127839;27;9218;-78
2022/11/08 02:45:10;;;;;;;;;2.00;2.00;;;;;;;;5132893;27;9349;-78
2022/11/08 02:47:38;;;;;;;;;2.33;2.33;;;;;;;;5128769;27;10085;-78
2022/11/08 02:50:07;;;;;;;;;2.25;2.25;;;;;;;;5130155;27;9449;-79
2022/11/08 02:52:34;;;;;;;;;3.75;3.75;;;;;;;;5109932;27;9381;-78
2022/11/08 02:55:02;;;;;;;;;4.00;2.00;;;;;;;;5094217;27;9448;-78
2022/11/08 02:57:31;;;;;;;;;2.00;2.00;;;;;;;;5130128;27;9304;-78
2022/11/08 03:00:01;;;;;;;;;3.00;3.00;;;;;;;;5126703;27;9312;-78
2022/11/08 03:02:28;;;;;;;;;3.33;2.33;;;;;;;;5108593;27;9498;-78
2022/11/08 03:04:56;;;;;;;;;3.00;3.00;;;;;;;;5128358;27;10050;-78
2022/11/08 03:07:23;;;;;;;;;2.67;1.00;;;;;;;;5106392;27;9967;-78
2022/11/08 03:09:50;;;;;;;;;2.00;2.00;;;;;;;;5128139;27;9295;-78
2022/11/08 03:12:20;;;;;;;;;2.00;2.00;;;;;;;;5105295;27;9418;-77
2022/11/08 03:14:47;;;;;;;;;3.00;3.00;;;;;;;;5126413;27;9418;-78
2022/11/08 03:17:16;;;;;;;;;3.00;3.00;;;;;;;;5108416;27;9529;-76
2022/11/08 03:19:44;;;;;;;;;4.67;2.67;;;;;;;;5109783;27;10305;-78
2022/11/08 03:22:11;;;;;;;;;2.00;2.00;;;;;;;;5127317;27;9397;-78
2022/11/08 03:24:40;;;;;;;;;2.25;2.25;;;;;;;;5128251;27;9301;-77
2022/11/08 03:27:08;;;;;;;;;2.33;2.33;;;;;;;;5123814;27;9514;-78
2022/11/08 03:29:36;;;;;;;;;3.33;2.00;;;;;;;;5106467;27;10249;-78
2022/11/08 03:32:03;;;;;;;;;2.00;2.00;;;;;;;;5107922;27;9421;-79
2022/11/08 03:34:32;;;;;;;;;2.00;2.00;;;;;;;;5122827;27;9419;-78
2022/11/08 03:37:00;;;;;;;;;2.00;2.00;;;;;;;;5092240;27;9348;-77
2022/11/08 03:39:28;;;;;;;;;2.00;2.00;;;;;;;;5105630;27;9371;-78
2022/11/08 03:41:56;;;;;;;;;2.67;2.67;;;;;;;;5105346;27;9351;-78
2022/11/08 03:44:23;;;;;;;;;2.00;2.00;;;;;;;;5129799;27;9395;-78
2022/11/08 03:46:51;;;;;;;;;2.00;2.00;;;;;;;;5128461;27;9563;-78
2022/11/08 03:49:19;;;;;;;;;3.00;3.00;;;;;;;;5126246;27;9408;-79
2022/11/08 03:51:48;;;;;;;;;3.00;3.00;;;;;;;;5121613;27;9234;-79
2022/11/08 03:54:16;;;;;;;;;3.00;3.00;;;;;;;;5110292;27;9233;-79
2022/11/08 03:56:44;;;;;;;;;2.00;1.67;;;;;;;;5126415;27;9284;-79
2022/11/08 03:59:11;;;;;;;;;1.33;1.33;;;;;;;;5104039;27;9068;-79
2022/11/08 04:01:39;;;;;;;;;3.67;2.67;;;;;;;;5104788;27;9070;-79
2022/11/08 04:04:08;;;;;;;;;2.67;2.67;;;;;;;;5125884;27;9094;-79
2022/11/08 04:06:36;;;;;;;;;2.00;2.00;;;;;;;;5109892;27;9195;-79
2022/11/08 04:09:04;;;;;;;;;2.00;2.00;;;;;;;;5130012;27;9186;-79
2022/11/08 04:17:02;;;;;;;;;2.00;2.00;;;;;;;;5112839;27;9038;-79
2022/11/08 04:22:14;;;;;;;;;3.67;2.00;;;;;;;;5132164;27;9216;-78
2022/11/08 04:24:44;;;;;;;;;3.67;2.00;;;;;;;;5131238;27;9095;-78
2022/11/08 04:27:12;;;;;;;;;3.00;3.00;;;;;;;;5130269;27;9121;-78
2022/11/08 04:29:39;;;;;;;;;3.00;3.00;;;;;;;;5130866;27;9217;-78
2022/11/08 04:32:07;;;;;;;;;2.00;2.00;;;;;;;;5129029;27;9172;-78
2022/11/08 04:34:34;;;;;;;;;2.33;2.33;;;;;;;;5109284;27;9188;-79
2022/11/08 04:37:02;;;;;;;;;2.67;2.67;;;;;;;;5113966;27;9282;-79
2022/11/08 04:39:31;;;;;;;;;3.67;2.00;;;;;;;;5113024;27;8987;-78
2022/11/08 04:42:00;;;;;;;;;2.33;2.33;;;;;;;;5129289;27;9217;-79
2022/11/08 04:44:28;;;;;;;;;5.67;2.00;;;;;;;;5111953;27;9258;-79
2022/11/08 04:46:56;;;;;;;;;2.00;2.00;;;;;;;;5134840;27;9183;-79
2022/11/08 04:49:23;;;;;;;;;2.00;2.00;;;;;;;;5131542;27;9230;-79
2022/11/08 04:51:51;;;;;;;;;2.67;2.00;;;;;;;;5134522;27;9063;-79
2022/11/08 04:54:18;;;;;;;;;3.00;3.00;;;;;;;;5135178;27;9370;-78
2022/11/08 04:56:46;;;;;;;;;3.00;1.33;;;;;;;;5110325;27;9342;-77
2022/11/08 04:59:15;;;;;;;;;1.67;1.67;;;;;;;;5110721;27;9163;-77
2022/11/08 05:01:42;;;;;;;;;2.00;2.00;;;;;;;;5123664;27;9142;-77
2022/11/08 05:04:10;;;;;;;;;2.00;2.00;;;;;;;;5110039;27;9255;-78
2022/11/08 05:06:38;;;;;;;;;3.00;2.00;;;;;;;;5128785;27;9216;-78
2022/11/08 05:09:05;;;;;;;;;3.00;1.00;;;;;;;;5123884;27;9233;-78
2022/11/08 05:11:33;;;;;;;;;2.00;2.00;;;;;;;;5131060;27;9043;-78
2022/11/08 05:14:00;;;;;;;;;4.00;3.00;;;;;;;;5128985;27;9238;-77
2022/11/08 05:16:31;;;;;;;;;2.67;2.67;;;;;;;;5127761;27;10208;-77
2022/11/08 05:18:59;;;;;;;;;2.33;2.33;;;;;;;;5123708;27;9223;-79
2022/11/08 05:24:13;;;;;;;;;3.00;3.00;;;;;;;;5125894;27;9210;-78
2022/11/08 05:26:42;;;;;;;;;4.33;3.00;;;;;;;;5135636;27;9284;-79
2022/11/08 05:29:11;;;;;;;;;2.33;2.33;;;;;;;;5119004;27;9228;-78
2022/11/08 05:31:40;;;;;;;;;3.00;3.00;;;;;;;;5133996;27;9210;-79
2022/11/08 05:34:08;;;;;;;;;2.00;2.00;;;;;;;;5133659;27;9200;-78
2022/11/08 05:36:35;;;;;;;;;2.00;2.00;;;;;;;;5139967;27;9218;-79
2022/11/08 05:39:03;;;;;;;;;2.67;2.67;;;;;;;;5130980;27;9252;-80
2022/11/08 05:41:31;;;;;;;;;3.67;3.67;;;;;;;;5127769;27;9377;-78
2022/11/08 05:44:05;;;;;;;;;3.00;3.00;;;;;;;;5124361;27;9241;-78
2022/11/08 05:46:32;;;;;;;;;3.00;3.00;;;;;;;;5111364;27;9187;-78
2022/11/08 05:49:02;;;;;;;;;2.33;2.33;;;;;;;;5108300;27;9369;-78
2022/11/08 05:51:31;;;;;;;;;2.67;2.67;;;;;;;;5124886;27;9250;-76
2022/11/08 05:53:59;;;;;;;;;2.00;2.00;;;;;;;;5123250;27;9196;-77
2022/11/08 05:56:27;;;;;;;;;2.00;2.00;;;;;;;;5126024;27;9172;-78
2022/11/08 05:59:25;;;;;;;;;3.00;3.00;;;;;;;;5129116;27;9374;-77
2022/11/08 06:01:53;;;;;;;;;3.00;3.00;;;;;;;;5121725;27;9301;-77
2022/11/08 06:04:22;;;;;;;;;2.00;2.00;;;;;;;;5127825;27;9226;-76
2022/11/08 06:06:50;;;;;;;;;2.33;2.33;;;;;;;;5108997;27;9230;-77
2022/11/08 06:09:18;;;;;;;;;1.67;1.67;;;;;;;;5130925;27;9336;-77
2022/11/08 06:11:45;;;;;;;;;3.00;3.00;;;;;;;;5131947;27;9316;-77
2022/11/08 06:14:13;;;;;;;;;2.00;2.00;;;;;;;;5109768;27;9405;-77
2022/11/08 06:16:41;;;;;;;;;2.00;2.00;;;;;;;;5130409;27;9235;-77
2022/11/08 06:19:08;;;;;;;;;3.67;2.00;;;;;;;;5127252;27;9343;-77
2022/11/08 06:21:37;;;;;;;;;3.00;3.00;;;;;;;;5109343;27;9313;-76
2022/11/08 06:24:06;;;;;;;;;2.00;2.00;;;;;;;;5107569;27;9281;-76
2022/11/08 06:26:34;;;;;;;;;2.00;2.00;;;;;;;;5109440;27;10170;-77
2022/11/08 06:29:02;;;;;;;;;2.67;2.00;;;;;;;;5130834;27;9224;-76
2022/11/08 06:31:29;;;;;;;;;1.00;1.00;;;;;;;;5106042;27;9238;-76
2022/11/08 06:33:57;;;;;;;;;2.33;2.33;;;;;;;;5124152;27;9221;-75
2022/11/08 06:36:24;;;;;;;;;2.33;2.33;;;;;;;;5122534;27;9228;-76
2022/11/08 06:38:56;;;;;;;;;3.00;3.00;;;;;;;;5122677;27;9237;-71
2022/11/08 06:41:26;;;;;;;;;2.00;2.00;;;;;;;;5124621;27;9197;-74
2022/11/08 06:43:53;;;;;;;;;2.00;2.00;;;;;;;;5120851;27;9081;-74
2022/11/08 06:46:21;;;;;;;;;2.33;1.00;;;;;;;;5124581;27;9121;-74
2022/11/08 06:48:49;;;;;;;;;1.00;1.00;;;;;;;;5103907;27;9270;-76
2022/11/08 06:51:16;;;;;;;;;2.00;2.00;;;;;;;;5120461;27;9268;-74
2022/11/08 06:53:44;;;;;;;;;2.00;2.00;;;;;;;;5124185;27;9217;-73
2022/11/08 06:56:13;;;;;;;;;3.00;1.33;;;;;;;;5123908;27;9154;-73
2022/11/08 06:58:41;;;;;;;;;1.00;1.00;;;;;;;;5123695;27;9066;-74
2022/11/08 07:01:10;;;;;;;;;3.33;3.33;;;;;;;;5105600;27;8996;-74
2022/11/08 07:03:38;;;;;;;;;3.00;1.00;;;;;;;;5124480;27;9141;-74
2022/11/08 07:06:06;;;;;;;;;3.00;2.00;;;;;;;;5126319;27;9161;-73
2022/11/08 07:08:34;;;;;;;;;4.00;3.00;;;;;;;;5088801;27;9084;-74
2022/11/08 07:11:02;;;;;;;;;1.00;1.00;;;;;;;;5126885;27;8993;-71
2022/11/08 07:13:31;;;;;;;;;2.00;2.00;;;;;;;;5122580;27;9044;-73
2022/11/08 07:15:59;;;;;;;;;2.33;2.33;;;;;;;;5102311;27;9014;-74
2022/11/08 07:18:28;;;;;;;;;2.00;2.00;;;;;;;;5124452;27;9053;-73
2022/11/08 07:20:59;;;;;;;;;3.00;3.00;;;;;;;;5121949;27;9245;-73
2022/11/08 07:23:27;;;;;;;;;3.00;3.00;;;;;;;;5120506;27;9080;-75
2022/11/08 07:25:54;;;;;;;;;1.67;1.67;;;;;;;;5120799;27;9077;-75
2022/11/08 07:28:22;;;;;;;;;4.00;2.00;;;;;;;;5123018;27;8981;-74
2022/11/08 07:30:51;;;;;;;;;1.67;1.67;;;;;;;;5103126;27;8954;-74
2022/11/08 07:33:18;;;;;;;;;4.67;3.00;;;;;;;;5119868;27;9060;-73
2022/11/08 07:35:47;;;;;;;;;3.00;3.00;;;;;;;;5120299;27;8951;-74
2022/11/08 07:38:15;;;;;;;;;2.00;2.00;;;;;;;;5121605;27;9177;-73
2022/11/08 07:40:43;;;;;;;;;3.00;3.00;;;;;;;;5102216;27;9090;-74
2022/11/08 07:43:11;;;;;;;;;2.00;2.00;;;;;;;;5117668;27;9138;-73
2022/11/08 07:45:39;;;;;;;;;2.00;2.00;;;;;;;;5118762;27;9121;-74
2022/11/08 07:48:10;;;;;;;;;2.67;2.67;;;;;;;;5119954;27;9093;-73
2022/11/08 07:50:37;;;;;;;;;3.00;3.00;;;;;;;;5118720;27;9098;-74
2022/11/08 07:53:05;;;;;;;;;3.33;3.33;;;;;;;;5116548;27;8968;-75
2022/11/08 07:55:33;;;;;;;;;1.00;1.00;;;;;;;;5100440;27;9011;-75
2022/11/08 07:58:01;;;;;;;;;2.00;2.00;;;;;;;;5121522;27;8968;-75
2022/11/08 08:00:29;;;;;;;;;2.00;2.00;;;;;;;;5102185;27;8843;-78
2022/11/08 08:02:58;;;;;;;;;2.00;2.00;;;;;;;;5099627;27;8937;-76
2022/11/08 08:05:29;;;;;;;;;2.67;2.00;;;;;;;;5119483;27;9850;-74
2022/11/08 08:07:58;;;;;;;;;2.00;2.00;;;;;;;;5100135;27;9828;-75
2022/11/08 08:10:26;;;;;;;;;3.00;3.00;;;;;;;;5122848;27;8916;-77
2022/11/08 08:12:54;;;;;;;;;3.00;3.00;;;;;;;;5102675;27;8951;-74
2022/11/08 08:15:22;;;;;;;;;2.67;2.67;;;;;;;;5098538;27;9059;-74
2022/11/08 08:17:49;;;;;;;;;1.50;1.50;;;;;;;;5120382;27;8935;-76
2022/11/08 08:20:16;;;;;;;;;4.00;2.00;;;;;;;;5116839;27;8871;-74
2022/11/08 08:22:46;;;;;;;;;4.00;2.50;;;;;;;;5118106;27;8866;-74
2022/11/08 08:25:14;;;;;;;;;3.00;3.00;;;;;;;;5118794;27;8940;-74
2022/11/08 08:27:47;;;;;;;;;4.00;3.00;;;;;;;;5102659;27;8860;-74
2022/11/08 08:30:18;;;;;;;;;2.75;2.75;;;;;;;;5120761;27;8844;-74
2022/11/08 08:32:46;;;;;;;;;2.00;2.00;;;;;;;;5123850;27;8827;-73
2022/11/08 08:35:14;;;;;;;;;2.50;2.50;;;;;;;;5124527;27;8984;-73
2022/11/08 08:37:42;;;;;;;;;2.00;2.00;;;;;;;;5122530;27;9625;-72
2022/11/08 08:40:13;;;;;;;;;4.75;2.00;;;;;;;;5118998;27;8978;-74
2022/11/08 08:42:40;;;;;;;;;1.75;1.00;;;;;;;;5122145;27;8848;-75
2022/11/08 08:45:10;;;;;;;;;3.25;2.00;;;;;;;;5117277;27;8861;-73
2022/11/08 08:47:37;;;;;;;;;3.00;3.00;;;;;;;;5095394;27;8856;-74
2022/11/08 08:50:06;;;;;;;;;2.00;2.00;;;;;;;;5122677;27;8958;-73
2022/11/08 08:52:34;;;;;;;;;1.75;1.50;;;;;;;;5122796;27;8852;-73
2022/11/08 08:55:01;;;;;;;;;1.00;1.00;;;;;;;;5103022;27;8886;-72
2022/11/08 08:57:31;;;;;;;;;3.75;2.75;;;;;;;;5122873;27;9663;-73
2022/11/08 08:59:59;;;;;;;;;3.50;3.50;;;;;;;;5125621;27;8955;-74
2022/11/08 09:02:26;;;;;;;;;2.00;2.00;;;;;;;;5104602;27;8849;-73
2022/11/08 09:04:54;;;;;;;;;1.50;1.50;;;;;;;;5120005;27;8836;-73
2022/11/08 09:07:21;;;;;;;;;1.25;1.25;;;;;;;;5107198;27;9747;-73
2022/11/08 09:09:49;;;;;;;;;2.00;2.00;;;;;;;;5129011;27;9041;-73
2022/11/08 09:12:18;;;;;;;;;2.00;2.00;;;;;;;;5126581;27;8926;-73
2022/11/08 09:14:47;;;;;;;;;2.75;2.75;;;;;;;;5126449;27;8950;-73
2022/11/08 09:17:14;;;;;;;;;4.00;3.00;;;;;;;;5126841;27;9675;-73
2022/11/08 09:19:42;;;;;;;;;2.00;2.00;;;;;;;;5126630;27;8836;-74
2022/11/08 09:22:10;;;;;;;;;2.50;1.50;;;;;;;;5108426;27;9586;-73
2022/11/08 09:24:37;;;;;;;;;1.00;1.00;;;;;;;;5109076;27;8866;-73
2022/11/08 09:27:05;;;;;;;;;2.25;2.00;;;;;;;;5127366;27;8866;-73
2022/11/08 09:29:33;;;;;;;;;2.25;2.00;;;;;;;;5127316;27;8860;-74
2022/11/08 09:32:02;;;;;;;;;2.00;2.00;;;;;;;;5127562;27;8872;-74
2022/11/08 09:34:31;;;;;;;;;2.75;2.75;;;;;;;;5129988;27;8874;-74
2022/11/08 09:36:59;;;;;;;;;3.50;3.50;;;;;;;;5108276;27;8899;-74
2022/11/08 09:39:27;;;;;;;;;2.50;2.50;;;;;;;;5106561;27;8926;-74
2022/11/08 09:42:27;;;;;;;;;2.00;2.00;;;;;;;;5126786;27;8834;-74
2022/11/08 09:45:16;;;;;;;;;2.25;2.25;;;;;;;;5126754;27;8885;-74
2022/11/08 09:47:47;;;;;;;;;3.75;2.00;;;;;;;;5117866;27;9617;-74
2022/11/08 09:50:19;;;;;;;;;2.50;2.50;;;;;;;;5107117;27;8960;-74
2022/11/08 09:52:52;;;;;;;;;1.25;1.25;;;;;;;;5127220;27;8828;-73
2022/11/08 09:55:25;;;;;;;;;2.00;2.00;;;;;;;;5131901;27;8857;-74
2022/11/08 09:58:08;;;;;;;;;2.00;2.00;;;;;;;;5130084;27;8831;-75
2022/11/08 10:00:37;;;;;;;;;2.50;1.25;;;;;;;;5130045;27;8830;-74
2022/11/08 10:03:08;;;;;;;;;1.50;1.50;;;;;;;;5130851;27;8825;-74
2022/11/08 10:05:41;;;;;;;;;1.00;1.00;;;;;;;;5127421;27;8827;-74
2022/11/08 10:08:14;;;;;;;;;1.00;1.00;;;;;;;;5130377;27;8844;-74
2022/11/08 10:10:58;;;;;;;;;1.00;1.00;;;;;;;;5126996;27;8852;-73
2022/11/08 10:13:33;;;;;;;;;3.00;3.00;;;;;;;;5122414;27;8822;-74
2022/11/08 10:16:05;;;;;;;;;3.50;2.00;;;;;;;;5125300;27;8862;-74
2022/11/08 10:18:58;;;;;;;;;1.00;1.00;;;;;;;;5125658;27;8944;-74
2022/11/08 10:21:40;;;;;;;;;1.00;1.00;;;;;;;;5126201;27;9622;-74
2022/11/08 10:24:15;;;;;;;;;1.00;1.00;;;;;;;;5108771;27;8831;-73
2022/11/08 10:26:45;;;;;;;;;2.00;2.00;;;;;;;;5126617;27;8864;-73
2022/11/08 10:29:19;;;;;;;;;2.00;2.00;;;;;;;;5127084;27;8866;-74
2022/11/08 10:31:48;;;;;;;;;1.75;1.75;;;;;;;;5126593;27;8840;-74
2022/11/08 10:34:20;;;;;;;;;0.75;0.75;;;;;;;;5126980;27;8844;-73
2022/11/08 10:36:50;;;;;;;;;4.00;2.00;;;;;;;;5123822;27;8827;-73
2022/11/08 10:39:22;;;;;;;;;2.50;2.25;;;;;;;;5125316;27;8864;-73
2022/11/08 10:41:57;;;;;;;;;0.25;0.25;;;;;;;;5125150;27;8851;-74
2022/11/08 10:44:26;;;;;;;;;2.00;2.00;;;;;;;;5119210;27;9702;-73
2022/11/08 10:46:59;;;;;;;;;1.75;1.75;;;;;;;;5119843;27;8851;-73
2022/11/08 10:49:32;;;;;;;;;1.75;1.75;;;;;;;;5121473;27;8966;-74
2022/11/08 10:52:01;;;;;;;;;2.00;2.00;;;;;;;;5116169;27;8891;-71
2022/11/08 10:54:47;;;;;;;;;3.00;1.75;;;;;;;;5121479;27;8862;-74
2022/11/08 10:57:16;;;;;;;;;2.00;2.00;;;;;;;;5123046;27;8888;-74
2022/11/08 10:59:45;;;;;;;;;2.00;2.00;;;;;;;;5116730;27;8845;-74
2022/11/08 11:02:23;;;;;;;;;3.00;1.75;;;;;;;;5118450;27;8845;-75
2022/11/08 11:04:53;;;;;;;;;2.00;2.00;;;;;;;;5095816;27;8840;-74
2022/11/08 11:07:33;;;;;;;;;1.50;1.00;;;;;;;;5103151;27;8972;-76
2022/11/08 11:10:21;;;;;;;;;4.00;3.00;;;;;;;;5123076;27;8920;-75
2022/11/08 11:12:51;;;;;;;;;1.25;1.25;;;;;;;;5113114;27;8874;-74
2022/11/08 11:15:18;;;;;;;;;2.00;2.00;;;;;;;;5117495;27;8920;-75
2022/11/08 11:17:47;;;;;;;;;2.50;2.50;;;;;;;;5124295;27;8824;-75
2022/11/08 11:20:32;;;;;;;;;2.00;2.00;;;;;;;;5100093;27;8819;-75
2022/11/08 11:23:00;;;;;;;;;1.50;1.50;;;;;;;;5122319;27;8864;-74
2022/11/08 11:25:28;;;;;;;;;2.00;2.00;;;;;;;;5103336;27;8833;-75
2022/11/08 11:27:58;;;;;;;;;3.00;3.00;;;;;;;;5105652;27;8823;-75
2022/11/08 11:30:29;;;;;;;;;1.00;1.00;;;;;;;;5115417;27;8854;-73
2022/11/08 11:33:02;;;;;;;;;2.50;1.50;;;;;;;;5122878;27;8848;-75
2022/11/08 11:35:41;;;;;;;;;2.00;2.00;;;;;;;;5116538;27;8846;-76
2022/11/08 11:38:15;;;;;;;;;3.25;1.25;;;;;;;;5121853;27;8859;-76
2022/11/08 11:40:46;;;;;;;;;3.50;3.50;;;;;;;;5121759;27;8844;-76
2022/11/08 11:43:20;;;;;;;;;2.75;2.75;;;;;;;;5118896;27;8966;-75
2022/11/08 11:45:51;;;;;;;;;1.00;1.00;;;;;;;;5099249;27;8834;-75
2022/11/08 11:48:25;;;;;;;;;2.00;2.00;;;;;;;;5114340;27;9677;-77
2022/11/08 11:50:53;;;;;;;;;2.75;2.75;;;;;;;;5111921;27;8874;-74
2022/11/08 11:53:23;;;;;;;;;1.00;1.00;;;;;;;;5125741;27;8833;-75
2022/11/08 11:56:39;;;;;;;;;3.50;2.00;;;;;;;;5121227;27;8864;-75
2022/11/08 11:59:45;;;;;;;;;3.00;3.00;;;;;;;;5034472;28;8871;-75
2022/11/08 12:02:44;;;;;;;;;2.00;2.00;;;;;;;;5132495;27;9403;-73
2022/11/08 12:05:38;;;;;;;;;1.50;1.00;;;;;;;;5121539;27;8808;-75
2022/11/08 12:08:20;;;;;;;;;2.25;2.25;;;;;;;;5122898;27;8844;-74
2022/11/08 12:11:01;;;;;;;;;2.25;2.25;;;;;;;;5100900;27;9634;-72
2022/11/08 12:13:37;;;;;;;;;2.75;2.75;;;;;;;;5120909;27;8950;-72
2022/11/08 12:16:11;;;;;;;;;2.00;2.00;;;;;;;;5120690;27;8844;-74
2022/11/08 12:18:53;;;;;;;;;4.00;2.75;;;;;;;;5119327;27;8828;-72
2022/11/08 12:21:28;;;;;;;;;2.00;2.00;;;;;;;;5101223;27;9593;-72
2022/11/08 12:24:10;;;;;;;;;3.50;2.75;;;;;;;;5132369;27;8830;-72
2022/11/08 12:26:44;;;;;;;;;0.25;0.00;;;;;;;;5120334;27;8924;-72
2022/11/08 12:29:23;;;;;;;;;2.00;2.00;;;;;;;;5103828;27;8812;-72
2022/11/08 12:32:05;;;;;;;;;1.75;1.75;;;;;;;;5101053;27;8852;-72
2022/11/08 12:34:43;;;;;;;;;2.00;2.00;;;;;;;;5120590;27;8961;-72
2022/11/08 12:37:19;;;;;;;;;2.75;2.75;;;;;;;;5102315;27;8823;-71
2022/11/08 12:39:51;;;;;;;;;2.00;2.00;;;;;;;;5121677;27;8905;-72
2022/11/08 12:42:36;;;;;;;;;2.00;2.00;;;;;;;;5124594;27;8954;-72
2022/11/08 12:45:48;;;;;;;;;2.00;2.00;;;;;;;;5124692;27;8884;-73
2022/11/08 12:48:24;;;;;;;;;1.00;1.00;;;;;;;;5046743;28;10997;-73
2022/11/08 12:50:58;;;;;;;;;1.75;1.75;;;;;;;;5112581;27;9486;-73
2022/11/08 12:53:49;;;;;;;;;1.00;1.00;;;;;;;;5128664;27;8834;-73
2022/11/08 12:56:21;;;;;;;;;2.00;2.00;;;;;;;;5122552;27;8847;-73
2022/11/08 12:58:51;;;;;;;;;1.50;1.50;;;;;;;;5124704;27;8832;-75
2022/11/08 13:01:21;;;;;;;;;3.00;1.25;;;;;;;;5126057;27;8852;-76
2022/11/08 13:04:27;;;;;;;;;2.00;2.00;;;;;;;;5126886;27;9598;-75
2022/11/08 13:07:00;;;;;;;;;3.50;2.00;;;;;;;;5091854;27;9010;-74
2022/11/08 13:09:39;;;;;;;;;2.00;2.00;;;;;;;;5124946;27;8832;-76
2022/11/08 13:12:29;;;;;;;;;3.25;2.00;;;;;;;;5125144;27;8829;-74
2022/11/08 13:14:59;;;;;;;;;1.50;1.00;;;;;;;;5121216;27;8840;-74
2022/11/08 13:17:28;;;;;;;;;2.00;2.00;;;;;;;;5127009;27;8831;-73
2022/11/08 13:19:59;;;;;;;;;2.00;2.00;;;;;;;;5131077;27;8841;-74
2022/11/08 13:23:00;;;;;;;;;1.00;1.00;;;;;;;;5126505;27;8810;-74
2022/11/08 13:25:39;;;;;;;;;1.00;1.00;;;;;;;;5122895;27;8848;-73
2022/11/08 13:28:36;;;;;;;;;2.00;1.00;;;;;;;;5126865;27;9604;-76
2022/11/08 13:31:31;;;;;;;;;2.00;2.00;;;;;;;;5124324;27;8855;-74
2022/11/08 13:34:10;;;;;;;;;2.00;2.00;;;;;;;;5126124;27;8954;-75
2022/11/08 13:36:57;;;;;;;;;1.75;1.75;;;;;;;;5105249;27;8912;-74
2022/11/08 13:39:48;;;;;;;;;1.25;1.25;;;;;;;;5119468;27;8912;-74
2022/11/08 13:42:31;;;;;;;;;1.50;1.50;;;;;;;;5125222;27;8835;-76
2022/11/08 13:45:22;;;;;;;;;1.75;1.75;;;;;;;;5117026;27;8983;-74
2022/11/08 13:47:56;;;;;;;;;1.00;1.00;;;;;;;;5125024;27;8982;-75
2022/11/08 13:50:47;;;;;;;;;2.00;2.00;;;;;;;;5104917;27;8922;-75
2022/11/08 13:53:43;;;;;;;;;1.50;1.50;;;;;;;;5104055;27;8927;-76
2022/11/08 13:56:44;;;;;;;;;3.00;3.00;;;;;;;;5122425;27;8808;-76
2022/11/08 13:59:49;;;;;;;;;0.00;0.00;;;;;;;;5124204;27;8815;-76
2022/11/08 14:02:38;;;;;;;;;2.00;2.00;;;;;;;;5125479;27;8824;-75
2022/11/08 14:05:27;;;;;;;;;3.25;2.75;;;;;;;;5123569;27;8829;-72
2022/11/08 14:08:15;;;;;;;;;3.00;3.00;;;;;;;;5125905;27;8852;-71
2022/11/08 14:11:12;;;;;;;;;3.00;2.00;;;;;;;;5126220;27;8936;-73
2022/11/08 14:14:03;;;;;;;;;1.00;1.00;;;;;;;;5123903;27;8878;-73
2022/11/08 14:16:35;;;;;;;;;6.25;2.00;;;;;;;;5091163;27;8856;-73
2022/11/08 14:19:22;;;;;;;;;3.00;3.00;;;;;;;;5106487;27;8824;-73
2022/11/08 14:21:52;;;;;;;;;1.50;1.50;;;;;;;;5124067;27;8852;-73
2022/11/08 14:24:24;;;;;;;;;3.00;3.00;;;;;;;;5123431;27;8978;-73
2022/11/08 14:26:52;;;;;;;;;3.00;3.00;;;;;;;;5128123;27;8852;-72
2022/11/08 14:29:22;;;;;;;;;4.75;3.25;;;;;;;;5120137;27;8855;-73
2022/11/08 14:32:02;;;;;;;;;3.00;3.00;;;;;;;;5104919;27;8914;-72
2022/11/08 14:34:35;;;;;;;;;4.50;4.00;;;;;;;;5124533;27;8866;-72
2022/11/08 14:37:04;;;;;;;;;2.00;2.00;;;;;;;;5126223;27;8849;-73
2022/11/08 14:39:33;;;;;;;;;3.00;3.00;;;;;;;;5106961;27;8862;-73
2022/11/08 14:42:03;;;;;;;;;2.50;2.50;;;;;;;;5105291;27;8886;-72
2022/11/08 14:44:31;;;;;;;;;3.00;3.00;;;;;;;;5122270;27;9630;-72
2022/11/08 14:46:59;;;;;;;;;5.00;2.00;;;;;;;;5122962;27;9724;-72
2022/11/08 14:49:36;;;;;;;;;1.00;1.00;;;;;;;;5121561;27;8860;-73
2022/11/08 14:52:12;;;;;;;;;2.25;2.25;;;;;;;;5122620;27;9721;-73
2022/11/08 14:54:41;;;;;;;;;3.00;3.00;;;;;;;;5125126;27;8848;-73
2022/11/08 14:57:30;;;;;;;;;4.75;2.00;;;;;;;;5121467;27;8827;-73
2022/11/08 14:59:58;;;;;;;;;2.00;2.00;;;;;;;;5125142;27;8931;-72
2022/11/08 15:02:26;;;;;;;;;2.00;2.00;;;;;;;;5123039;27;8851;-73
2022/11/08 15:04:55;;;;;;;;;2.00;2.00;;;;;;;;5118590;27;9620;-72
2022/11/08 15:07:24;;;;;;;;;3.50;2.00;;;;;;;;5107592;27;8831;-72
2022/11/08 15:09:53;;;;;;;;;1.50;1.50;;;;;;;;5124452;27;8983;-73
2022/11/08 15:12:24;;;;;;;;;2.00;2.00;;;;;;;;5106571;27;8817;-73
2022/11/08 15:14:55;;;;;;;;;1.75;1.75;;;;;;;;5127937;27;8854;-73
2022/11/08 15:17:35;;;;;;;;;1.75;1.75;;;;;;;;5104598;27;8856;-75
2022/11/08 15:20:21;;;;;;;;;3.50;2.75;;;;;;;;5121389;27;8823;-73
2022/11/08 15:22:49;;;;;;;;;2.00;2.00;;;;;;;;5104788;27;8863;-74
2022/11/08 15:25:24;;;;;;;;;2.00;2.00;;;;;;;;5128408;27;8844;-74
2022/11/08 15:27:55;;;;;;;;;1.00;1.00;;;;;;;;5123195;27;8983;-73
2022/11/08 15:30:27;;;;;;;;;1.00;1.00;;;;;;;;5126122;27;8831;-73
2022/11/08 15:32:55;;;;;;;;;3.50;2.25;;;;;;;;5122609;27;8843;-72
2022/11/08 15:35:35;;;;;;;;;1.25;1.25;;;;;;;;5102717;27;8957;-72
2022/11/08 15:38:04;;;;;;;;;2.00;2.00;;;;;;;;5121833;27;8847;-72
2022/11/08 15:40:34;;;;;;;;;2.00;2.00;;;;;;;;5122622;27;8840;-72
2022/11/08 15:43:03;;;;;;;;;1.75;1.50;;;;;;;;5122034;27;8847;-74
2022/11/08 15:45:34;;;;;;;;;1.00;1.00;;;;;;;;5105192;27;8976;-71